sensor_id;sensor_type;location;lat;lon;timestamp;P1;durP1;ratioP1;P2;durP2;ratioP2
19551;SDS011;9921;47.186;9.778;2023-09-19T00:01:32;0.00;;;0.00;;
19551;SDS011;9921;47.186;9.778;2023-09-19T00:04:01;0.00;;;0.00;;
19551;SDS011;9921;47.186;9.778;2023-09-19T00:06:29;0.00;;;0.00;;
19551;SDS011;9921;47.186;9.778;2023-09-19T00:08:56;0.00;;;0.00;;
19551;SDS011;9921;47.186;9.778;2023-09-19T00:11:25;0.00;;;0.00;;
19551;SDS011;9921;47.186;9.778;2023-09-19T00:13:52;0.00;;;0.00;;
19551;SDS011;9921;47.186;9.778;2023-09-19T00:16:19;0.00;;;0.00;;
19551;SDS011;9921;47.186;9.778;2023-09-19T00:18:46;0.00;;;0.00;;
19551;SDS011;9921;47.186;9.778;2023-09-19T00:21:15;0.00;;;0.00;;
19551;SDS011;9921;47.186;9.778;2023-09-19T00:23:44;0.00;;;0.00;;
19551;SDS011;9921;47.186;9.778;2023-09-19T00:26:11;0.00;;;0.00;;
19551;SDS011;9921;47.186;9.778;2023-09-19T00:28:38;0.00;;;0.00;;
19551;SDS011;9921;47.186;9.778;2023-09-19T00:31:04;0.00;;;0.00;;
19551;SDS011;9921;47.186;9.778;2023-09-19T00:33:34;0.00;;;0.00;;
19551;SDS011;9921;47.186;9.778;2023-09-19T00:36:01;0.00;;;0.00;;
19551;SDS011;9921;47.186;9.778;2023-09-19T00:38:31;0.00;;;0.00;;
19551;SDS011;9921;47.186;9.778;2023-09-19T00:40:58;0.00;;;0.00;;
19551;SDS011;9921;47.186;9.778;2023-09-19T00:43:25;0.00;;;0.00;;
19551;SDS011;9921;47.186;9.778;2023-09-19T00:45:53;0.00;;;0.00;;
19551;SDS011;9921;47.186;9.778;2023-09-19T00:48:21;0.00;;;0.00;;
19551;SDS011;9921;47.186;9.778;2023-09-19T00:50:50;0.00;;;0.00;;
19551;SDS011;9921;47.186;9.778;2023-09-19T00:53:19;0.00;;;0.00;;
19551;SDS011;9921;47.186;9.778;2023-09-19T00:55:50;0.00;;;0.00;;
19551;SDS011;9921;47.186;9.778;2023-09-19T00:58:18;0.00;;;0.00;;
19551;SDS011;9921;47.186;9.778;2023-09-19T01:00:46;0.00;;;0.00;;
19551;SDS011;9921;47.186;9.778;2023-09-19T01:03:14;0.00;;;0.00;;
19551;SDS011;9921;47.186;9.778;2023-09-19T01:05:41;0.00;;;0.00;;
19551;SDS011;9921;47.186;9.778;2023-09-19T01:08:08;0.00;;;0.00;;
19551;SDS011;9921;47.186;9.778;2023-09-19T01:10:36;0.00;;;0.00;;
19551;SDS011;9921;47.186;9.778;2023-09-19T01:13:13;0.00;;;0.00;;
19551;SDS011;9921;47.186;9.778;2023-09-19T01:15:49;0.00;;;0.00;;
19551;SDS011;9921;47.186;9.778;2023-09-19T01:18:27;0.00;;;0.00;;
19551;SDS011;9921;47.186;9.778;2023-09-19T01:21:03;0.00;;;0.00;;
19551;SDS011;9921;47.186;9.778;2023-09-19T01:23:39;0.00;;;0.00;;
19551;SDS011;9921;47.186;9.778;2023-09-19T01:26:22;0.00;;;0.00;;
19551;SDS011;9921;47.186;9.778;2023-09-19T01:29:21;0.00;;;0.00;;
19551;SDS011;9921;47.186;9.778;2023-09-19T01:32:03;0.00;;;0.00;;
19551;SDS011;9921;47.186;9.778;2023-09-19T01:34:43;0.00;;;0.00;;
19551;SDS011;9921;47.186;9.778;2023-09-19T01:37:12;0.00;;;0.00;;
19551;SDS011;9921;47.186;9.778;2023-09-19T01:39:39;0.00;;;0.00;;
19551;SDS011;9921;47.186;9.778;2023-09-19T01:42:08;0.00;;;0.00;;
19551;SDS011;9921;47.186;9.778;2023-09-19T01:44:44;0.00;;;0.00;;
19551;SDS011;9921;47.186;9.778;2023-09-19T01:47:19;0.00;;;0.00;;
19551;SDS011;9921;47.186;9.778;2023-09-19T01:49:55;0.00;;;0.00;;
19551;SDS011;9921;47.186;9.778;2023-09-19T01:52:26;0.00;;;0.00;;
19551;SDS011;9921;47.186;9.778;2023-09-19T01:55:02;0.00;;;0.00;;
19551;SDS011;9921;47.186;9.778;2023-09-19T01:57:34;0.00;;;0.00;;
19551;SDS011;9921;47.186;9.778;2023-09-19T02:00:07;0.00;;;0.00;;
19551;SDS011;9921;47.186;9.778;2023-09-19T02:02:38;0.00;;;0.00;;
19551;SDS011;9921;47.186;9.778;2023-09-19T02:05:07;0.00;;;0.00;;
19551;SDS011;9921;47.186;9.778;2023-09-19T02:07:34;0.00;;;0.00;;
19551;SDS011;9921;47.186;9.778;2023-09-19T02:10:03;0.00;;;0.00;;
19551;SDS011;9921;47.186;9.778;2023-09-19T02:12:30;0.00;;;0.00;;
19551;SDS011;9921;47.186;9.778;2023-09-19T02:14:58;0.00;;;0.00;;
19551;SDS011;9921;47.186;9.778;2023-09-19T02:17:25;0.00;;;0.00;;
19551;SDS011;9921;47.186;9.778;2023-09-19T02:19:53;0.00;;;0.00;;
19551;SDS011;9921;47.186;9.778;2023-09-19T02:22:21;0.00;;;0.00;;
19551;SDS011;9921;47.186;9.778;2023-09-19T02:24:49;0.00;;;0.00;;
19551;SDS011;9921;47.186;9.778;2023-09-19T02:27:17;0.00;;;0.00;;
19551;SDS011;9921;47.186;9.778;2023-09-19T02:29:44;0.00;;;0.00;;
19551;SDS011;9921;47.186;9.778;2023-09-19T02:32:11;0.00;;;0.00;;
19551;SDS011;9921;47.186;9.778;2023-09-19T02:34:38;0.00;;;0.00;;
19551;SDS011;9921;47.186;9.778;2023-09-19T02:37:06;0.00;;;0.00;;
19551;SDS011;9921;47.186;9.778;2023-09-19T02:39:33;0.00;;;0.00;;
19551;SDS011;9921;47.186;9.778;2023-09-19T02:42:00;0.00;;;0.00;;
19551;SDS011;9921;47.186;9.778;2023-09-19T02:44:29;0.00;;;0.00;;
19551;SDS011;9921;47.186;9.778;2023-09-19T02:46:56;0.00;;;0.00;;
19551;SDS011;9921;47.186;9.778;2023-09-19T02:49:24;0.00;;;0.00;;
19551;SDS011;9921;47.186;9.778;2023-09-19T02:51:51;0.00;;;0.00;;
19551;SDS011;9921;47.186;9.778;2023-09-19T02:54:19;0.00;;;0.00;;
19551;SDS011;9921;47.186;9.778;2023-09-19T02:56:46;0.00;;;0.00;;
19551;SDS011;9921;47.186;9.778;2023-09-19T02:59:14;0.00;;;0.00;;
19551;SDS011;9921;47.186;9.778;2023-09-19T03:01:42;0.00;;;0.00;;
19551;SDS011;9921;47.186;9.778;2023-09-19T03:04:13;0.00;;;0.00;;
19551;SDS011;9921;47.186;9.778;2023-09-19T03:06:44;0.00;;;0.00;;
19551;SDS011;9921;47.186;9.778;2023-09-19T03:09:11;0.00;;;0.00;;
19551;SDS011;9921;47.186;9.778;2023-09-19T03:11:40;0.00;;;0.00;;
19551;SDS011;9921;47.186;9.778;2023-09-19T03:14:07;0.00;;;0.00;;
19551;SDS011;9921;47.186;9.778;2023-09-19T03:16:37;0.00;;;0.00;;
19551;SDS011;9921;47.186;9.778;2023-09-19T03:19:04;0.00;;;0.00;;
19551;SDS011;9921;47.186;9.778;2023-09-19T03:21:32;0.00;;;0.00;;
19551;SDS011;9921;47.186;9.778;2023-09-19T03:24:00;0.00;;;0.00;;
19551;SDS011;9921;47.186;9.778;2023-09-19T03:26:27;0.00;;;0.00;;
19551;SDS011;9921;47.186;9.778;2023-09-19T03:28:55;0.00;;;0.00;;
19551;SDS011;9921;47.186;9.778;2023-09-19T03:31:22;0.00;;;0.00;;
19551;SDS011;9921;47.186;9.778;2023-09-19T03:33:49;0.00;;;0.00;;
19551;SDS011;9921;47.186;9.778;2023-09-19T03:36:16;0.00;;;0.00;;
19551;SDS011;9921;47.186;9.778;2023-09-19T03:38:43;0.00;;;0.00;;
19551;SDS011;9921;47.186;9.778;2023-09-19T03:41:10;0.00;;;0.00;;
19551;SDS011;9921;47.186;9.778;2023-09-19T03:43:39;0.00;;;0.00;;
19551;SDS011;9921;47.186;9.778;2023-09-19T03:46:08;0.00;;;0.00;;
19551;SDS011;9921;47.186;9.778;2023-09-19T03:48:37;0.00;;;0.00;;
19551;SDS011;9921;47.186;9.778;2023-09-19T03:51:04;0.00;;;0.00;;
19551;SDS011;9921;47.186;9.778;2023-09-19T03:53:31;0.00;;;0.00;;
19551;SDS011;9921;47.186;9.778;2023-09-19T03:55:58;0.00;;;0.00;;
19551;SDS011;9921;47.186;9.778;2023-09-19T03:58:25;0.00;;;0.00;;
19551;SDS011;9921;47.186;9.778;2023-09-19T04:00:54;0.00;;;0.00;;
19551;SDS011;9921;47.186;9.778;2023-09-19T04:03:22;0.00;;;0.00;;
19551;SDS011;9921;47.186;9.778;2023-09-19T04:05:59;0.00;;;0.00;;
19551;SDS011;9921;47.186;9.778;2023-09-19T04:08:26;0.00;;;0.00;;
19551;SDS011;9921;47.186;9.778;2023-09-19T04:10:53;0.00;;;0.00;;
19551;SDS011;9921;47.186;9.778;2023-09-19T04:13:20;0.00;;;0.00;;
19551;SDS011;9921;47.186;9.778;2023-09-19T04:15:47;0.00;;;0.00;;
19551;SDS011;9921;47.186;9.778;2023-09-19T04:18:14;0.00;;;0.00;;
19551;SDS011;9921;47.186;9.778;2023-09-19T04:20:42;0.00;;;0.00;;
19551;SDS011;9921;47.186;9.778;2023-09-19T04:23:14;0.00;;;0.00;;
19551;SDS011;9921;47.186;9.778;2023-09-19T04:25:41;0.00;;;0.00;;
19551;SDS011;9921;47.186;9.778;2023-09-19T04:28:08;0.00;;;0.00;;
19551;SDS011;9921;47.186;9.778;2023-09-19T04:30:36;0.00;;;0.00;;
19551;SDS011;9921;47.186;9.778;2023-09-19T04:33:05;0.00;;;0.00;;
19551;SDS011;9921;47.186;9.778;2023-09-19T04:35:33;0.00;;;0.00;;
19551;SDS011;9921;47.186;9.778;2023-09-19T04:38:01;0.00;;;0.00;;
19551;SDS011;9921;47.186;9.778;2023-09-19T04:40:31;0.00;;;0.00;;
19551;SDS011;9921;47.186;9.778;2023-09-19T04:42:59;0.00;;;0.00;;
19551;SDS011;9921;47.186;9.778;2023-09-19T04:45:26;0.00;;;0.00;;
19551;SDS011;9921;47.186;9.778;2023-09-19T04:47:54;0.00;;;0.00;;
19551;SDS011;9921;47.186;9.778;2023-09-19T04:50:21;0.00;;;0.00;;
19551;SDS011;9921;47.186;9.778;2023-09-19T04:52:50;0.00;;;0.00;;
19551;SDS011;9921;47.186;9.778;2023-09-19T04:55:18;0.00;;;0.00;;
19551;SDS011;9921;47.186;9.778;2023-09-19T04:57:45;0.00;;;0.00;;
19551;SDS011;9921;47.186;9.778;2023-09-19T05:00:13;0.00;;;0.00;;
19551;SDS011;9921;47.186;9.778;2023-09-19T05:02:44;0.00;;;0.00;;
19551;SDS011;9921;47.186;9.778;2023-09-19T05:05:11;0.00;;;0.00;;
19551;SDS011;9921;47.186;9.778;2023-09-19T05:07:41;0.00;;;0.00;;
19551;SDS011;9921;47.186;9.778;2023-09-19T05:10:09;0.00;;;0.00;;
19551;SDS011;9921;47.186;9.778;2023-09-19T05:12:38;0.00;;;0.00;;
19551;SDS011;9921;47.186;9.778;2023-09-19T05:15:05;0.00;;;0.00;;
19551;SDS011;9921;47.186;9.778;2023-09-19T05:17:33;0.00;;;0.00;;
19551;SDS011;9921;47.186;9.778;2023-09-19T05:20:00;0.00;;;0.00;;
19551;SDS011;9921;47.186;9.778;2023-09-19T05:22:40;0.00;;;0.00;;
19551;SDS011;9921;47.186;9.778;2023-09-19T05:25:08;0.00;;;0.00;;
19551;SDS011;9921;47.186;9.778;2023-09-19T05:27:37;0.00;;;0.00;;
19551;SDS011;9921;47.186;9.778;2023-09-19T05:30:05;0.00;;;0.00;;
19551;SDS011;9921;47.186;9.778;2023-09-19T05:32:33;0.00;;;0.00;;
19551;SDS011;9921;47.186;9.778;2023-09-19T05:35:00;0.00;;;0.00;;
19551;SDS011;9921;47.186;9.778;2023-09-19T05:37:26;0.00;;;0.00;;
19551;SDS011;9921;47.186;9.778;2023-09-19T05:39:54;0.00;;;0.00;;
19551;SDS011;9921;47.186;9.778;2023-09-19T05:42:22;0.00;;;0.00;;
19551;SDS011;9921;47.186;9.778;2023-09-19T05:44:50;0.00;;;0.00;;
19551;SDS011;9921;47.186;9.778;2023-09-19T05:47:17;0.00;;;0.00;;
19551;SDS011;9921;47.186;9.778;2023-09-19T05:49:44;0.00;;;0.00;;
19551;SDS011;9921;47.186;9.778;2023-09-19T05:52:11;0.00;;;0.00;;
19551;SDS011;9921;47.186;9.778;2023-09-19T05:54:38;0.00;;;0.00;;
19551;SDS011;9921;47.186;9.778;2023-09-19T05:57:04;0.00;;;0.00;;
19551;SDS011;9921;47.186;9.778;2023-09-19T05:59:32;0.00;;;0.00;;
19551;SDS011;9921;47.186;9.778;2023-09-19T06:02:00;0.00;;;0.00;;
19551;SDS011;9921;47.186;9.778;2023-09-19T06:04:30;0.00;;;0.00;;
19551;SDS011;9921;47.186;9.778;2023-09-19T06:06:57;0.00;;;0.00;;
19551;SDS011;9921;47.186;9.778;2023-09-19T06:09:25;0.00;;;0.00;;
19551;SDS011;9921;47.186;9.778;2023-09-19T06:11:53;0.00;;;0.00;;
19551;SDS011;9921;47.186;9.778;2023-09-19T06:14:22;0.00;;;0.00;;
19551;SDS011;9921;47.186;9.778;2023-09-19T06:16:49;0.00;;;0.00;;
19551;SDS011;9921;47.186;9.778;2023-09-19T06:19:20;0.00;;;0.00;;
19551;SDS011;9921;47.186;9.778;2023-09-19T06:21:51;0.00;;;0.00;;
19551;SDS011;9921;47.186;9.778;2023-09-19T06:24:19;0.00;;;0.00;;
19551;SDS011;9921;47.186;9.778;2023-09-19T06:26:46;0.00;;;0.00;;
19551;SDS011;9921;47.186;9.778;2023-09-19T06:29:14;0.00;;;0.00;;
19551;SDS011;9921;47.186;9.778;2023-09-19T06:31:41;0.00;;;0.00;;
19551;SDS011;9921;47.186;9.778;2023-09-19T06:34:09;0.00;;;0.00;;
19551;SDS011;9921;47.186;9.778;2023-09-19T06:36:37;0.00;;;0.00;;
19551;SDS011;9921;47.186;9.778;2023-09-19T06:39:06;0.00;;;0.00;;
19551;SDS011;9921;47.186;9.778;2023-09-19T06:41:35;0.00;;;0.00;;
19551;SDS011;9921;47.186;9.778;2023-09-19T06:44:03;0.00;;;0.00;;
19551;SDS011;9921;47.186;9.778;2023-09-19T06:46:34;0.00;;;0.00;;
19551;SDS011;9921;47.186;9.778;2023-09-19T06:49:04;0.00;;;0.00;;
19551;SDS011;9921;47.186;9.778;2023-09-19T06:51:31;0.00;;;0.00;;
19551;SDS011;9921;47.186;9.778;2023-09-19T06:54:00;0.00;;;0.00;;
19551;SDS011;9921;47.186;9.778;2023-09-19T06:56:30;0.00;;;0.00;;
19551;SDS011;9921;47.186;9.778;2023-09-19T06:58:58;0.00;;;0.00;;
19551;SDS011;9921;47.186;9.778;2023-09-19T07:01:24;0.00;;;0.00;;
19551;SDS011;9921;47.186;9.778;2023-09-19T07:03:51;0.00;;;0.00;;
19551;SDS011;9921;47.186;9.778;2023-09-19T07:06:18;0.00;;;0.00;;
19551;SDS011;9921;47.186;9.778;2023-09-19T07:08:45;0.00;;;0.00;;
19551;SDS011;9921;47.186;9.778;2023-09-19T07:11:15;0.00;;;0.00;;
19551;SDS011;9921;47.186;9.778;2023-09-19T07:13:42;0.00;;;0.00;;
19551;SDS011;9921;47.186;9.778;2023-09-19T07:16:09;0.00;;;0.00;;
19551;SDS011;9921;47.186;9.778;2023-09-19T07:18:44;0.00;;;0.00;;
19551;SDS011;9921;47.186;9.778;2023-09-19T07:21:11;0.00;;;0.00;;
19551;SDS011;9921;47.186;9.778;2023-09-19T07:23:40;0.00;;;0.00;;
19551;SDS011;9921;47.186;9.778;2023-09-19T07:26:07;0.00;;;0.00;;
19551;SDS011;9921;47.186;9.778;2023-09-19T07:28:35;0.00;;;0.00;;
19551;SDS011;9921;47.186;9.778;2023-09-19T07:31:02;0.00;;;0.00;;
19551;SDS011;9921;47.186;9.778;2023-09-19T07:33:30;0.00;;;0.00;;
19551;SDS011;9921;47.186;9.778;2023-09-19T07:35:57;0.00;;;0.00;;
19551;SDS011;9921;47.186;9.778;2023-09-19T07:38:24;0.00;;;0.00;;
19551;SDS011;9921;47.186;9.778;2023-09-19T07:40:52;0.00;;;0.00;;
19551;SDS011;9921;47.186;9.778;2023-09-19T07:43:18;0.00;;;0.00;;
19551;SDS011;9921;47.186;9.778;2023-09-19T07:45:47;0.00;;;0.00;;
19551;SDS011;9921;47.186;9.778;2023-09-19T07:48:14;0.00;;;0.00;;
19551;SDS011;9921;47.186;9.778;2023-09-19T07:50:41;0.00;;;0.00;;
19551;SDS011;9921;47.186;9.778;2023-09-19T07:53:09;0.00;;;0.00;;
19551;SDS011;9921;47.186;9.778;2023-09-19T07:55:38;0.00;;;0.00;;
19551;SDS011;9921;47.186;9.778;2023-09-19T07:58:06;0.00;;;0.00;;
19551;SDS011;9921;47.186;9.778;2023-09-19T08:00:33;0.00;;;0.00;;
19551;SDS011;9921;47.186;9.778;2023-09-19T08:03:02;0.00;;;0.00;;
19551;SDS011;9921;47.186;9.778;2023-09-19T08:05:29;0.00;;;0.00;;
19551;SDS011;9921;47.186;9.778;2023-09-19T08:07:56;0.00;;;0.00;;
19551;SDS011;9921;47.186;9.778;2023-09-19T08:10:24;0.00;;;0.00;;
19551;SDS011;9921;47.186;9.778;2023-09-19T08:12:52;0.00;;;0.00;;
19551;SDS011;9921;47.186;9.778;2023-09-19T08:15:23;0.00;;;0.00;;
19551;SDS011;9921;47.186;9.778;2023-09-19T08:17:50;0.00;;;0.00;;
19551;SDS011;9921;47.186;9.778;2023-09-19T08:20:18;0.00;;;0.00;;
19551;SDS011;9921;47.186;9.778;2023-09-19T08:22:46;0.00;;;0.00;;
19551;SDS011;9921;47.186;9.778;2023-09-19T08:25:14;0.00;;;0.00;;
19551;SDS011;9921;47.186;9.778;2023-09-19T08:27:43;0.00;;;0.00;;
19551;SDS011;9921;47.186;9.778;2023-09-19T08:30:13;0.00;;;0.00;;
19551;SDS011;9921;47.186;9.778;2023-09-19T08:32:41;0.00;;;0.00;;
19551;SDS011;9921;47.186;9.778;2023-09-19T08:35:08;0.00;;;0.00;;
19551;SDS011;9921;47.186;9.778;2023-09-19T08:37:37;0.00;;;0.00;;
19551;SDS011;9921;47.186;9.778;2023-09-19T08:40:04;0.00;;;0.00;;
19551;SDS011;9921;47.186;9.778;2023-09-19T08:42:46;0.00;;;0.00;;
19551;SDS011;9921;47.186;9.778;2023-09-19T08:45:15;0.10;;;0.10;;
19551;SDS011;9921;47.186;9.778;2023-09-19T08:47:44;0.10;;;0.10;;
19551;SDS011;9921;47.186;9.778;2023-09-19T08:50:16;0.10;;;0.10;;
19551;SDS011;9921;47.186;9.778;2023-09-19T08:52:52;0.10;;;0.10;;
19551;SDS011;9921;47.186;9.778;2023-09-19T08:55:23;0.10;;;0.10;;
19551;SDS011;9921;47.186;9.778;2023-09-19T08:57:59;0.10;;;0.10;;
19551;SDS011;9921;47.186;9.778;2023-09-19T09:00:28;0.00;;;0.00;;
19551;SDS011;9921;47.186;9.778;2023-09-19T09:02:57;0.10;;;0.10;;
19551;SDS011;9921;47.186;9.778;2023-09-19T09:05:25;0.10;;;0.10;;
19551;SDS011;9921;47.186;9.778;2023-09-19T09:07:57;0.08;;;0.08;;
19551;SDS011;9921;47.186;9.778;2023-09-19T09:10:25;0.10;;;0.10;;
19551;SDS011;9921;47.186;9.778;2023-09-19T09:12:53;0.00;;;0.00;;
19551;SDS011;9921;47.186;9.778;2023-09-19T09:15:21;0.10;;;0.10;;
19551;SDS011;9921;47.186;9.778;2023-09-19T09:17:49;0.00;;;0.00;;
19551;SDS011;9921;47.186;9.778;2023-09-19T09:20:18;0.00;;;0.00;;
19551;SDS011;9921;47.186;9.778;2023-09-19T09:22:53;0.00;;;0.00;;
19551;SDS011;9921;47.186;9.778;2023-09-19T09:25:25;0.00;;;0.00;;
19551;SDS011;9921;47.186;9.778;2023-09-19T09:28:22;0.10;;;0.10;;
19551;SDS011;9921;47.186;9.778;2023-09-19T09:30:50;0.10;;;0.10;;
19551;SDS011;9921;47.186;9.778;2023-09-19T09:33:17;0.10;;;0.10;;
19551;SDS011;9921;47.186;9.778;2023-09-19T09:35:48;0.10;;;0.10;;
19551;SDS011;9921;47.186;9.778;2023-09-19T09:38:17;0.10;;;0.10;;
19551;SDS011;9921;47.186;9.778;2023-09-19T09:40:49;0.08;;;0.08;;
19551;SDS011;9921;47.186;9.778;2023-09-19T09:43:25;0.10;;;0.10;;
19551;SDS011;9921;47.186;9.778;2023-09-19T09:46:06;0.00;;;0.00;;
19551;SDS011;9921;47.186;9.778;2023-09-19T09:48:58;0.00;;;0.00;;
19551;SDS011;9921;47.186;9.778;2023-09-19T09:51:41;0.00;;;0.00;;
19551;SDS011;9921;47.186;9.778;2023-09-19T09:54:12;0.00;;;0.00;;
19551;SDS011;9921;47.186;9.778;2023-09-19T09:56:54;0.00;;;0.00;;
19551;SDS011;9921;47.186;9.778;2023-09-19T10:02:19;0.08;;;0.08;;
19551;SDS011;9921;47.186;9.778;2023-09-19T10:04:51;0.00;;;0.00;;
19551;SDS011;9921;47.186;9.778;2023-09-19T10:07:27;0.00;;;0.00;;
19551;SDS011;9921;47.186;9.778;2023-09-19T10:09:57;0.00;;;0.00;;
19551;SDS011;9921;47.186;9.778;2023-09-19T10:12:37;0.00;;;0.00;;
19551;SDS011;9921;47.186;9.778;2023-09-19T10:15:08;0.00;;;0.00;;
19551;SDS011;9921;47.186;9.778;2023-09-19T10:17:42;0.00;;;0.00;;
19551;SDS011;9921;47.186;9.778;2023-09-19T10:20:12;0.00;;;0.00;;
19551;SDS011;9921;47.186;9.778;2023-09-19T10:22:59;0.00;;;0.00;;
19551;SDS011;9921;47.186;9.778;2023-09-19T10:25:35;0.00;;;0.00;;
19551;SDS011;9921;47.186;9.778;2023-09-19T10:28:06;0.10;;;0.10;;
19551;SDS011;9921;47.186;9.778;2023-09-19T10:30:36;0.05;;;0.05;;
19551;SDS011;9921;47.186;9.778;2023-09-19T10:33:11;0.00;;;0.00;;
19551;SDS011;9921;47.186;9.778;2023-09-19T10:35:41;0.00;;;0.00;;
19551;SDS011;9921;47.186;9.778;2023-09-19T10:38:10;0.00;;;0.00;;
19551;SDS011;9921;47.186;9.778;2023-09-19T10:40:39;0.00;;;0.00;;
19551;SDS011;9921;47.186;9.778;2023-09-19T10:43:12;0.00;;;0.00;;
19551;SDS011;9921;47.186;9.778;2023-09-19T10:45:44;0.00;;;0.00;;
19551;SDS011;9921;47.186;9.778;2023-09-19T10:48:14;0.00;;;0.00;;
19551;SDS011;9921;47.186;9.778;2023-09-19T10:50:45;0.10;;;0.10;;
19551;SDS011;9921;47.186;9.778;2023-09-19T10:53:17;0.10;;;0.10;;
19551;SDS011;9921;47.186;9.778;2023-09-19T10:55:49;0.10;;;0.10;;
19551;SDS011;9921;47.186;9.778;2023-09-19T10:58:31;0.10;;;0.10;;
19551;SDS011;9921;47.186;9.778;2023-09-19T11:01:04;0.10;;;0.10;;
19551;SDS011;9921;47.186;9.778;2023-09-19T11:03:38;0.20;;;0.20;;
19551;SDS011;9921;47.186;9.778;2023-09-19T11:06:09;0.10;;;0.10;;
19551;SDS011;9921;47.186;9.778;2023-09-19T11:08:54;0.10;;;0.10;;
19551;SDS011;9921;47.186;9.778;2023-09-19T11:11:41;0.10;;;0.10;;
19551;SDS011;9921;47.186;9.778;2023-09-19T11:25:55;0.20;;;0.20;;
19551;SDS011;9921;47.186;9.778;2023-09-19T11:28:35;0.20;;;0.20;;
19551;SDS011;9921;47.186;9.778;2023-09-19T11:40:35;0.20;;;0.20;;
19551;SDS011;9921;47.186;9.778;2023-09-19T11:46:06;0.25;;;0.25;;
19551;SDS011;9921;47.186;9.778;2023-09-19T11:48:34;0.30;;;0.30;;
19551;SDS011;9921;47.186;9.778;2023-09-19T11:53:55;0.30;;;0.30;;
19551;SDS011;9921;47.186;9.778;2023-09-19T11:56:24;0.40;;;0.40;;
19551;SDS011;9921;47.186;9.778;2023-09-19T11:58:53;0.30;;;0.30;;
19551;SDS011;9921;47.186;9.778;2023-09-19T12:01:21;0.30;;;0.30;;
19551;SDS011;9921;47.186;9.778;2023-09-19T12:03:52;0.40;;;0.40;;
19551;SDS011;9921;47.186;9.778;2023-09-19T12:06:23;0.30;;;0.30;;
19551;SDS011;9921;47.186;9.778;2023-09-19T12:08:51;0.30;;;0.30;;
19551;SDS011;9921;47.186;9.778;2023-09-19T12:11:21;0.40;;;0.40;;
19551;SDS011;9921;47.186;9.778;2023-09-19T12:13:49;0.40;;;0.40;;
19551;SDS011;9921;47.186;9.778;2023-09-19T12:16:18;0.30;;;0.30;;
19551;SDS011;9921;47.186;9.778;2023-09-19T12:18:48;0.40;;;0.40;;
19551;SDS011;9921;47.186;9.778;2023-09-19T12:21:23;0.40;;;0.40;;
19551;SDS011;9921;47.186;9.778;2023-09-19T12:24:04;0.40;;;0.40;;
19551;SDS011;9921;47.186;9.778;2023-09-19T12:26:39;0.40;;;0.40;;
19551;SDS011;9921;47.186;9.778;2023-09-19T12:29:15;0.40;;;0.40;;
19551;SDS011;9921;47.186;9.778;2023-09-19T12:31:50;0.40;;;0.40;;
19551;SDS011;9921;47.186;9.778;2023-09-19T12:34:20;0.40;;;0.40;;
19551;SDS011;9921;47.186;9.778;2023-09-19T12:36:49;0.40;;;0.40;;
19551;SDS011;9921;47.186;9.778;2023-09-19T12:39:29;0.40;;;0.40;;
19551;SDS011;9921;47.186;9.778;2023-09-19T12:41:56;0.40;;;0.40;;
19551;SDS011;9921;47.186;9.778;2023-09-19T12:44:23;0.40;;;0.40;;
19551;SDS011;9921;47.186;9.778;2023-09-19T12:46:50;0.40;;;0.40;;
19551;SDS011;9921;47.186;9.778;2023-09-19T12:49:19;0.40;;;0.40;;
19551;SDS011;9921;47.186;9.778;2023-09-19T12:51:49;0.40;;;0.40;;
19551;SDS011;9921;47.186;9.778;2023-09-19T12:54:23;0.40;;;0.40;;
19551;SDS011;9921;47.186;9.778;2023-09-19T12:56:51;0.40;;;0.40;;
19551;SDS011;9921;47.186;9.778;2023-09-19T12:59:19;0.50;;;0.50;;
19551;SDS011;9921;47.186;9.778;2023-09-19T13:02:03;0.40;;;0.40;;
19551;SDS011;9921;47.186;9.778;2023-09-19T13:04:32;0.40;;;0.40;;
19551;SDS011;9921;47.186;9.778;2023-09-19T13:07:06;0.40;;;0.40;;
19551;SDS011;9921;47.186;9.778;2023-09-19T13:09:34;0.30;;;0.30;;
19551;SDS011;9921;47.186;9.778;2023-09-19T13:12:01;0.30;;;0.30;;
19551;SDS011;9921;47.186;9.778;2023-09-19T13:14:29;0.30;;;0.30;;
19551;SDS011;9921;47.186;9.778;2023-09-19T13:16:59;0.30;;;0.30;;
19551;SDS011;9921;47.186;9.778;2023-09-19T13:19:39;0.30;;;0.30;;
19551;SDS011;9921;47.186;9.778;2023-09-19T13:25:11;0.30;;;0.30;;
19551;SDS011;9921;47.186;9.778;2023-09-19T13:27:43;0.30;;;0.30;;
19551;SDS011;9921;47.186;9.778;2023-09-19T13:30:11;0.20;;;0.20;;
19551;SDS011;9921;47.186;9.778;2023-09-19T13:32:38;0.20;;;0.20;;
19551;SDS011;9921;47.186;9.778;2023-09-19T13:35:06;0.20;;;0.20;;
19551;SDS011;9921;47.186;9.778;2023-09-19T13:37:38;0.20;;;0.20;;
19551;SDS011;9921;47.186;9.778;2023-09-19T13:40:08;0.20;;;0.20;;
19551;SDS011;9921;47.186;9.778;2023-09-19T13:42:36;0.20;;;0.20;;
19551;SDS011;9921;47.186;9.778;2023-09-19T13:45:05;0.20;;;0.20;;
19551;SDS011;9921;47.186;9.778;2023-09-19T13:47:37;0.20;;;0.20;;
19551;SDS011;9921;47.186;9.778;2023-09-19T13:50:04;0.20;;;0.20;;
19551;SDS011;9921;47.186;9.778;2023-09-19T13:52:32;0.20;;;0.20;;
19551;SDS011;9921;47.186;9.778;2023-09-19T13:55:00;0.20;;;0.20;;
19551;SDS011;9921;47.186;9.778;2023-09-19T13:57:28;0.20;;;0.20;;
19551;SDS011;9921;47.186;9.778;2023-09-19T13:59:55;0.20;;;0.20;;
19551;SDS011;9921;47.186;9.778;2023-09-19T14:02:22;0.20;;;0.20;;
19551;SDS011;9921;47.186;9.778;2023-09-19T14:04:49;0.20;;;0.20;;
19551;SDS011;9921;47.186;9.778;2023-09-19T14:07:17;0.20;;;0.20;;
19551;SDS011;9921;47.186;9.778;2023-09-19T14:09:45;0.10;;;0.10;;
19551;SDS011;9921;47.186;9.778;2023-09-19T14:12:12;0.20;;;0.20;;
19551;SDS011;9921;47.186;9.778;2023-09-19T14:14:41;0.10;;;0.10;;
19551;SDS011;9921;47.186;9.778;2023-09-19T14:17:08;0.20;;;0.20;;
19551;SDS011;9921;47.186;9.778;2023-09-19T14:19:35;0.17;;;0.17;;
19551;SDS011;9921;47.186;9.778;2023-09-19T14:22:03;0.10;;;0.10;;
19551;SDS011;9921;47.186;9.778;2023-09-19T14:24:32;0.10;;;0.10;;
19551;SDS011;9921;47.186;9.778;2023-09-19T14:27:00;0.10;;;0.10;;
19551;SDS011;9921;47.186;9.778;2023-09-19T14:29:29;0.10;;;0.10;;
19551;SDS011;9921;47.186;9.778;2023-09-19T14:31:57;0.10;;;0.10;;
19551;SDS011;9921;47.186;9.778;2023-09-19T14:34:27;0.10;;;0.10;;
19551;SDS011;9921;47.186;9.778;2023-09-19T14:36:53;0.10;;;0.10;;
19551;SDS011;9921;47.186;9.778;2023-09-19T14:39:20;0.10;;;0.10;;
19551;SDS011;9921;47.186;9.778;2023-09-19T14:41:48;0.10;;;0.10;;
19551;SDS011;9921;47.186;9.778;2023-09-19T14:44:15;0.10;;;0.10;;
19551;SDS011;9921;47.186;9.778;2023-09-19T14:46:42;0.10;;;0.10;;
19551;SDS011;9921;47.186;9.778;2023-09-19T14:49:11;0.10;;;0.10;;
19551;SDS011;9921;47.186;9.778;2023-09-19T14:51:40;0.10;;;0.10;;
19551;SDS011;9921;47.186;9.778;2023-09-19T14:54:09;0.10;;;0.10;;
19551;SDS011;9921;47.186;9.778;2023-09-19T14:56:36;0.10;;;0.10;;
19551;SDS011;9921;47.186;9.778;2023-09-19T14:59:03;0.10;;;0.10;;
19551;SDS011;9921;47.186;9.778;2023-09-19T15:01:30;0.10;;;0.10;;
19551;SDS011;9921;47.186;9.778;2023-09-19T15:03:57;0.10;;;0.10;;
19551;SDS011;9921;47.186;9.778;2023-09-19T15:06:27;0.20;;;0.20;;
19551;SDS011;9921;47.186;9.778;2023-09-19T15:08:54;0.10;;;0.10;;
19551;SDS011;9921;47.186;9.778;2023-09-19T15:11:22;0.10;;;0.10;;
19551;SDS011;9921;47.186;9.778;2023-09-19T15:13:51;0.17;;;0.17;;
19551;SDS011;9921;47.186;9.778;2023-09-19T15:16:19;0.10;;;0.10;;
19551;SDS011;9921;47.186;9.778;2023-09-19T15:18:46;0.10;;;0.10;;
19551;SDS011;9921;47.186;9.778;2023-09-19T15:21:13;0.10;;;0.10;;
19551;SDS011;9921;47.186;9.778;2023-09-19T15:23:42;0.10;;;0.10;;
19551;SDS011;9921;47.186;9.778;2023-09-19T15:26:11;0.10;;;0.10;;
19551;SDS011;9921;47.186;9.778;2023-09-19T15:28:39;0.10;;;0.10;;
19551;SDS011;9921;47.186;9.778;2023-09-19T15:31:06;0.10;;;0.10;;
19551;SDS011;9921;47.186;9.778;2023-09-19T15:33:35;0.10;;;0.10;;
19551;SDS011;9921;47.186;9.778;2023-09-19T15:36:05;0.10;;;0.10;;
19551;SDS011;9921;47.186;9.778;2023-09-19T15:41:25;0.20;;;0.20;;
19551;SDS011;9921;47.186;9.778;2023-09-19T15:43:53;0.10;;;0.10;;
19551;SDS011;9921;47.186;9.778;2023-09-19T15:46:20;0.10;;;0.10;;
19551;SDS011;9921;47.186;9.778;2023-09-19T15:48:48;0.10;;;0.10;;
19551;SDS011;9921;47.186;9.778;2023-09-19T15:51:15;0.10;;;0.10;;